createdAt,value
2022-09-02T00:02:25.305Z,53.77
2022-09-02T00:04:53.199Z,53.42
2022-09-02T00:07:20.990Z,53.65
2022-09-02T00:09:48.750Z,53.66
2022-09-02T00:12:16.824Z,53.73
2022-09-02T00:14:45.952Z,53.95
2022-09-02T00:17:13.868Z,53.98
2022-09-02T00:19:41.567Z,53.81
2022-09-02T00:22:09.418Z,53.82
2022-09-02T00:24:37.340Z,53.79
2022-09-02T00:27:05.422Z,54.10
2022-09-02T00:29:33.443Z,54.32
2022-09-02T00:32:02.615Z,54.51
2022-09-02T00:34:30.328Z,54.43
2022-09-02T00:36:58.053Z,54.69
2022-09-02T00:39:26.222Z,54.44
2022-09-02T00:41:54.114Z,54.84
2022-09-02T00:44:22.681Z,54.74
2022-09-02T00:46:50.577Z,54.49
2022-09-02T00:49:25.121Z,54.13
2022-09-02T00:51:56.428Z,54.27
2022-09-02T00:54:26.802Z,54.37
2022-09-02T00:56:56.255Z,53.94
2022-09-02T00:59:30.109Z,54.01
2022-09-02T01:01:58.356Z,54.11
2022-09-02T01:04:27.570Z,54.69
2022-09-02T01:06:55.261Z,54.64
2022-09-02T01:09:23.295Z,54.65
2022-09-02T01:11:55.450Z,54.80
2022-09-02T01:14:24.084Z,54.95
2022-09-02T01:16:59.905Z,54.20
2022-09-02T01:19:33.994Z,54.49
2022-09-02T01:22:07.055Z,54.23
2022-09-02T01:24:35.730Z,53.85
2022-09-02T01:27:03.781Z,54.44
2022-09-02T01:29:31.517Z,54.04
2022-09-02T01:32:00.435Z,54.64
2022-09-02T01:34:29.146Z,54.81
2022-09-02T01:36:56.957Z,54.76
2022-09-02T01:39:26.070Z,54.38
2022-09-02T01:41:53.918Z,54.06
2022-09-02T01:44:21.750Z,54.08
2022-09-02T01:46:49.496Z,53.54
2022-09-02T01:49:17.327Z,53.45
2022-09-02T01:51:45.070Z,53.57
2022-09-02T01:54:14.067Z,53.51
2022-09-02T01:56:45.305Z,53.76
2022-09-02T01:59:17.935Z,53.75
2022-09-02T02:01:46.220Z,53.44
2022-09-02T02:04:14.444Z,53.36
2022-09-02T02:06:43.615Z,53.11
2022-09-02T02:09:13.454Z,53.54
2022-09-02T02:11:41.658Z,53.20
2022-09-02T02:14:11.135Z,53.43
2022-09-02T02:16:39.192Z,53.30
2022-09-02T02:19:07.258Z,53.43
2022-09-02T02:21:35.190Z,53.53
2022-09-02T02:24:03.325Z,53.65
2022-09-02T02:26:31.188Z,53.40
2022-09-02T02:28:59.188Z,53.60
2022-09-02T02:31:28.286Z,53.22
2022-09-02T02:33:56.141Z,53.46
2022-09-02T02:36:24.017Z,53.32
2022-09-02T02:38:51.747Z,52.87
2022-09-02T02:41:19.428Z,53.20
2022-09-02T02:43:47.809Z,53.31
2022-09-02T02:46:16.466Z,53.24
2022-09-02T02:48:45.826Z,53.91
2022-09-02T02:51:13.578Z,53.88
2022-09-02T02:53:41.722Z,53.43
2022-09-02T02:56:09.871Z,53.44
2022-09-02T02:58:37.802Z,53.72
2022-09-02T03:01:05.708Z,53.88
2022-09-02T03:03:33.363Z,54.02
2022-09-02T03:06:02.959Z,54.25
2022-09-02T03:08:30.793Z,54.26
2022-09-02T03:10:59.108Z,54.62
2022-09-02T03:13:29.528Z,54.37
2022-09-02T03:15:59.804Z,54.48
2022-09-02T03:18:27.649Z,54.44
2022-09-02T03:20:55.563Z,54.54
2022-09-02T03:23:24.729Z,54.85
2022-09-02T03:25:52.623Z,54.53
2022-09-02T03:28:20.377Z,54.76
2022-09-02T03:30:48.738Z,54.40
2022-09-02T03:33:16.716Z,54.26
2022-09-02T03:35:46.354Z,54.31
2022-09-02T03:38:14.897Z,54.61
2022-09-02T03:40:44.504Z,54.32
2022-09-02T03:43:12.335Z,54.21
2022-09-02T03:45:41.965Z,54.57
2022-09-02T03:48:14.325Z,54.34
2022-09-02T03:50:47.247Z,54.41
2022-09-02T03:53:19.364Z,54.41
2022-09-02T03:55:50.641Z,54.48
2022-09-02T03:58:18.891Z,54.14
2022-09-02T04:00:51.682Z,54.26
2022-09-02T04:03:20.197Z,54.68
2022-09-02T04:05:48.389Z,54.50
2022-09-02T04:08:16.157Z,54.82
2022-09-02T04:10:44.442Z,54.23
2022-09-02T04:13:13.549Z,54.25
2022-09-02T04:15:43.017Z,54.35
2022-09-02T04:19:06.182Z,54.21
2022-09-02T04:21:35.881Z,54.00
2022-09-02T04:24:04.024Z,54.55
2022-09-02T04:26:31.846Z,54.41
2022-09-02T04:29:00.880Z,54.05
2022-09-02T04:31:31.968Z,53.60
2022-09-02T04:34:00.188Z,53.87
2022-09-02T04:36:30.870Z,54.21
2022-09-02T04:38:59.177Z,54.12
2022-09-02T04:41:30.613Z,54.12
2022-09-02T04:44:00.883Z,54.48
2022-09-02T04:46:34.594Z,54.00
2022-09-02T04:49:03.004Z,54.22
2022-09-02T04:51:31.659Z,54.21
2022-09-02T04:53:59.632Z,54.26
2022-09-02T04:56:29.179Z,54.80
2022-09-02T04:58:57.054Z,54.57
2022-09-02T05:01:28.866Z,54.40
2022-09-02T05:03:57.274Z,54.53
2022-09-02T05:06:27.419Z,54.70
2022-09-02T05:08:56.303Z,54.95
2022-09-02T05:11:28.577Z,54.50
2022-09-02T05:13:58.801Z,54.30
2022-09-02T05:16:30.004Z,53.95
2022-09-02T05:18:58.410Z,54.11
2022-09-02T05:21:26.385Z,54.18
2022-09-02T05:23:54.541Z,54.41
2022-09-02T05:26:23.108Z,54.82
2022-09-02T05:28:51.031Z,54.69
2022-09-02T05:31:21.354Z,54.67
2022-09-02T05:33:50.778Z,54.81
2022-09-02T05:36:21.153Z,54.63
2022-09-02T05:38:49.963Z,54.40
2022-09-02T05:41:23.355Z,54.33
2022-09-02T05:43:52.455Z,54.36
2022-09-02T05:46:23.333Z,54.82
2022-09-02T05:49:09.313Z,54.50
2022-09-02T05:51:42.687Z,53.96
2022-09-02T05:54:12.474Z,54.25
2022-09-02T05:56:45.204Z,53.96
2022-09-02T05:59:13.763Z,54.16
2022-09-02T06:01:42.052Z,54.16
2022-09-02T06:04:11.107Z,54.65
2022-09-02T06:06:38.835Z,54.94
2022-09-02T06:09:08.416Z,54.45
2022-09-02T06:11:40.185Z,54.12
2022-09-02T06:14:08.524Z,53.99
2022-09-02T06:16:37.215Z,53.91
2022-09-02T06:19:05.649Z,53.92
2022-09-02T06:21:37.144Z,53.84
2022-09-02T06:24:06.134Z,54.16
2022-09-02T06:26:34.094Z,53.98
2022-09-02T06:29:01.842Z,53.97
2022-09-02T06:31:34.507Z,54.15
2022-09-02T06:34:03.604Z,54.00
2022-09-02T06:36:32.677Z,53.88
2022-09-02T06:39:02.273Z,53.87
2022-09-02T06:41:33.458Z,53.33
2022-09-02T06:44:03.238Z,53.36
2022-09-02T06:46:33.595Z,53.48
2022-09-02T06:49:01.944Z,53.73
2022-09-02T06:51:31.756Z,53.00
2022-09-02T06:54:01.671Z,52.71
2022-09-02T06:56:29.881Z,52.83
2022-09-02T06:58:58.457Z,52.92
2022-09-02T07:01:28.414Z,53.24
2022-09-02T07:04:13.962Z,53.07
2022-09-02T07:06:44.287Z,52.83
2022-09-02T07:09:15.711Z,52.73
2022-09-02T07:11:47.946Z,53.00
2022-09-02T07:14:16.124Z,53.00
2022-09-02T07:16:46.529Z,53.17
2022-09-02T07:19:19.898Z,53.04
2022-09-02T07:21:49.009Z,52.89
2022-09-02T07:24:19.205Z,52.24
2022-09-02T07:26:47.024Z,51.94
2022-09-02T07:29:15.047Z,51.64
2022-09-02T07:31:45.377Z,51.53
2022-09-02T07:34:14.453Z,51.13
2022-09-02T07:36:42.620Z,50.66
2022-09-02T07:39:11.965Z,50.26
2022-09-02T07:41:46.793Z,50.11
2022-09-02T07:44:14.667Z,50.21
2022-09-02T07:46:42.459Z,50.27
2022-09-02T07:49:15.573Z,49.91
2022-09-02T07:51:49.198Z,49.86
2022-09-02T07:54:19.012Z,49.37
2022-09-02T07:56:49.733Z,48.74
2022-09-02T07:59:18.314Z,48.88
2022-09-02T08:01:48.253Z,48.54
2022-09-02T08:04:18.680Z,48.62
2022-09-02T08:06:47.046Z,48.15
2022-09-02T08:09:14.973Z,47.47
2022-09-02T08:11:46.496Z,47.25
2022-09-02T08:14:18.868Z,47.73
2022-09-02T08:16:48.021Z,47.05
2022-09-02T08:19:16.148Z,47.46
2022-09-02T08:21:44.153Z,47.35
2022-09-02T08:24:11.931Z,47.58
2022-09-02T08:26:39.652Z,47.50
2022-09-02T08:29:09.617Z,47.89
2022-09-02T08:31:39.588Z,46.76
2022-09-02T08:34:07.404Z,45.70
2022-09-02T08:36:35.046Z,45.62
2022-09-02T08:39:03.556Z,45.35
2022-09-02T08:41:36.007Z,44.99
2022-09-02T08:44:06.123Z,44.91
2022-09-02T08:46:35.980Z,42.30
2022-09-02T08:49:08.178Z,41.04
2022-09-02T08:51:39.150Z,40.57
2022-09-02T08:54:11.646Z,41.20
2022-09-02T08:56:39.975Z,41.09
2022-09-02T08:59:09.477Z,40.58
2022-09-02T09:01:46.759Z,40.46
2022-09-02T09:04:32.537Z,38.77
2022-09-02T09:07:14.286Z,39.61
2022-09-02T09:09:56.463Z,39.41
2022-09-02T09:12:38.672Z,39.23
2022-09-02T09:15:12.870Z,38.60
2022-09-02T09:17:45.415Z,38.24
2022-09-02T09:20:20.453Z,37.65
2022-09-02T09:22:50.868Z,37.28
2022-09-02T09:25:19.645Z,36.54
2022-09-02T09:27:47.329Z,36.61
2022-09-02T09:30:15.936Z,36.80
2022-09-02T09:32:47.437Z,35.50
2022-09-02T09:35:17.884Z,34.47
2022-09-02T09:37:47.940Z,34.53
2022-09-02T09:40:30.438Z,34.43
2022-09-02T09:45:34.964Z,32.16
2022-09-02T09:48:18.991Z,32.43
2022-09-02T09:50:50.093Z,32.11
2022-09-02T09:53:22.110Z,32.54
2022-09-02T09:55:55.422Z,32.19
2022-09-02T09:58:25.964Z,31.26
2022-09-02T10:00:56.376Z,31.26
2022-09-02T10:03:27.125Z,31.47
2022-09-02T10:06:19.922Z,31.14
2022-09-02T10:08:53.499Z,30.26
2022-09-02T10:11:25.078Z,30.27
2022-09-02T10:14:01.372Z,31.55
2022-09-02T10:16:53.140Z,29.64
2022-09-02T10:19:27.929Z,29.32
2022-09-02T10:22:23.300Z,30.05
2022-09-02T10:25:20.438Z,28.62
2022-09-02T10:28:00.983Z,29.28
2022-09-02T10:30:34.431Z,29.78
2022-09-02T10:33:16.614Z,29.72
2022-09-02T10:35:46.595Z,30.14
2022-09-02T10:38:34.224Z,30.98
2022-09-02T10:41:14.853Z,30.81
2022-09-02T10:44:13.690Z,31.27
2022-09-02T10:46:48.958Z,30.89
2022-09-02T10:49:31.472Z,31.15
2022-09-02T10:52:13.077Z,31.62
2022-09-02T10:54:53.366Z,31.26
2022-09-02T10:57:26.646Z,31.04
2022-09-02T11:00:01.816Z,30.69
2022-09-02T11:02:33.084Z,30.45
2022-09-02T11:05:04.085Z,30.97
2022-09-02T11:07:37.207Z,31.74
2022-09-02T11:10:12.478Z,31.01
2022-09-02T11:12:42.962Z,31.54
2022-09-02T11:15:17.358Z,31.71
2022-09-02T11:17:52.744Z,30.74
2022-09-02T11:20:30.806Z,31.32
2022-09-02T11:23:06.908Z,31.36
2022-09-02T11:25:43.028Z,30.47
2022-09-02T11:28:31.851Z,25.46
2022-09-02T11:31:07.665Z,22.07
2022-09-02T11:33:52.128Z,21.93
2022-09-02T11:36:20.930Z,23.25
2022-09-02T11:38:54.000Z,23.63
2022-09-02T11:41:36.848Z,23.83
2022-09-02T11:44:21.869Z,24.83
2022-09-02T11:47:09.981Z,25.10
2022-09-02T11:50:09.589Z,25.61
2022-09-02T11:52:58.028Z,26.19
2022-09-02T11:55:32.547Z,27.34
2022-09-02T11:58:02.755Z,27.66
2022-09-02T12:00:33.173Z,27.60
2022-09-02T12:03:38.869Z,27.25
2022-09-02T12:06:13.628Z,25.82
2022-09-02T12:09:04.004Z,26.58
2022-09-02T12:11:39.840Z,26.74
2022-09-02T12:14:11.871Z,26.74
2022-09-02T12:16:44.740Z,27.24
2022-09-02T12:19:28.097Z,28.64
2022-09-02T12:22:28.738Z,28.78
2022-09-02T12:24:57.368Z,28.72
2022-09-02T12:27:30.310Z,28.60
2022-09-02T12:30:01.472Z,28.65
2022-09-02T12:33:14.378Z,28.97
2022-09-02T12:35:57.611Z,29.89
2022-09-02T12:38:36.654Z,29.62
2022-09-02T12:41:20.360Z,28.93
2022-09-02T12:44:09.823Z,29.75
2022-09-02T12:46:56.834Z,29.43
2022-09-02T12:49:44.507Z,29.26
2022-09-02T12:52:14.223Z,29.24
2022-09-02T12:54:47.810Z,29.25
2022-09-02T12:57:17.316Z,29.29
2022-09-02T12:59:46.922Z,29.38
2022-09-02T13:02:29.730Z,29.71
2022-09-02T13:05:10.589Z,29.51
2022-09-02T13:08:08.047Z,29.91
2022-09-02T13:10:57.541Z,29.54
2022-09-02T13:14:03.993Z,30.14
2022-09-02T13:16:40.690Z,29.84
2022-09-02T13:19:43.458Z,30.15
2022-09-02T13:22:44.784Z,30.15
2022-09-02T13:25:48.234Z,30.42
2022-09-02T13:29:00.218Z,29.81
2022-09-02T13:31:29.329Z,30.05
2022-09-02T13:34:01.470Z,30.19
2022-09-02T13:36:36.457Z,29.29
2022-09-02T13:39:17.925Z,29.93
2022-09-02T13:41:46.127Z,29.92
2022-09-02T13:44:21.100Z,30.12
2022-09-02T13:46:51.049Z,29.49
2022-09-02T13:49:24.825Z,29.56
2022-09-02T13:51:56.649Z,29.08
2022-09-02T13:54:32.963Z,29.36
2022-09-02T13:57:04.816Z,29.54
2022-09-02T13:59:34.375Z,29.59
2022-09-02T14:02:17.777Z,29.26
2022-09-02T14:04:45.978Z,29.91
2022-09-02T14:07:16.827Z,29.96
2022-09-02T14:09:45.928Z,30.26
2022-09-02T14:12:13.938Z,29.81
2022-09-02T14:14:42.611Z,29.20
2022-09-02T14:17:22.215Z,29.83
2022-09-02T14:19:50.528Z,29.25
2022-09-02T14:22:25.743Z,29.01
2022-09-02T14:24:53.943Z,29.20
2022-09-02T14:27:23.954Z,29.28
2022-09-02T14:29:57.592Z,29.98
2022-09-02T14:32:27.047Z,29.12
2022-09-02T14:35:19.890Z,29.32
2022-09-02T14:37:55.755Z,31.65
2022-09-02T14:40:35.371Z,33.17
2022-09-02T14:43:03.606Z,30.95
2022-09-02T14:45:34.103Z,30.02
2022-09-02T14:48:11.356Z,31.47
2022-09-02T14:50:41.426Z,32.28
2022-09-02T14:53:11.726Z,30.19
2022-09-02T14:55:57.739Z,29.99
2022-09-02T14:58:27.339Z,29.43
2022-09-02T15:00:56.969Z,29.10
2022-09-02T15:03:25.381Z,29.31
2022-09-02T15:05:53.861Z,29.27
2022-09-02T15:08:23.485Z,29.17
2022-09-02T15:10:51.288Z,29.19
2022-09-02T15:13:27.123Z,29.16
2022-09-02T15:15:56.007Z,29.25
2022-09-02T15:18:24.051Z,29.49
2022-09-02T15:20:52.280Z,29.40
2022-09-02T15:23:20.173Z,29.56
2022-09-02T15:25:49.472Z,29.60
2022-09-02T15:28:17.186Z,29.90
2022-09-02T15:30:44.963Z,29.42
2022-09-02T15:33:19.793Z,29.26
2022-09-02T15:35:47.902Z,28.97
2022-09-02T15:38:15.843Z,29.18
2022-09-02T15:40:44.164Z,29.23
2022-09-02T15:43:13.963Z,29.19
2022-09-02T15:45:46.602Z,29.42
2022-09-02T15:48:14.448Z,29.37
2022-09-02T15:50:42.905Z,29.81
2022-09-02T15:53:16.122Z,29.80
2022-09-02T15:55:44.116Z,30.07
2022-09-02T15:58:13.147Z,29.91
2022-09-02T16:00:41.330Z,29.74
2022-09-02T16:03:11.671Z,30.23
2022-09-02T16:05:39.407Z,29.94
2022-09-02T16:08:07.142Z,30.10
2022-09-02T16:10:37.499Z,29.93
2022-09-02T16:13:05.632Z,30.39
2022-09-02T16:15:34.807Z,29.98
2022-09-02T16:18:02.544Z,30.20
2022-09-02T16:20:30.240Z,29.83
2022-09-02T16:22:57.998Z,29.74
2022-09-02T16:25:26.240Z,30.25
2022-09-02T16:27:54.939Z,29.98
2022-09-02T16:30:22.918Z,29.95
2022-09-02T16:32:52.822Z,30.01
2022-09-02T16:35:20.513Z,30.37
2022-09-02T16:37:48.610Z,29.86
2022-09-02T16:40:21.434Z,30.08
2022-09-02T16:42:49.398Z,29.85
2022-09-02T16:45:17.366Z,29.71
2022-09-02T16:47:45.103Z,30.02
2022-09-02T16:50:14.234Z,30.36
2022-09-02T16:52:42.064Z,30.29
2022-09-02T16:55:10.591Z,30.23
2022-09-02T16:57:38.274Z,29.98
2022-09-02T17:00:07.407Z,30.54
2022-09-02T17:02:35.574Z,30.34
2022-09-02T17:05:03.379Z,30.62
2022-09-02T17:07:32.377Z,30.57
2022-09-02T17:10:00.149Z,30.65
2022-09-02T17:12:27.918Z,30.26
2022-09-02T17:14:55.656Z,30.54
2022-09-02T17:17:23.345Z,30.56
2022-09-02T17:19:51.234Z,30.39
2022-09-02T17:22:18.974Z,30.47
2022-09-02T17:24:51.796Z,30.66
2022-09-02T17:27:21.507Z,30.83
2022-09-02T17:29:50.004Z,30.93
2022-09-02T17:32:18.605Z,31.03
2022-09-02T17:34:46.383Z,30.93
2022-09-02T17:37:14.058Z,31.15
2022-09-02T17:39:41.792Z,31.01
2022-09-02T17:42:10.248Z,31.25
2022-09-02T17:44:39.717Z,31.37
2022-09-02T17:47:09.600Z,31.79
2022-09-02T17:49:39.110Z,31.53
2022-09-02T17:52:08.427Z,31.83
2022-09-02T17:54:37.629Z,31.90
2022-09-02T17:57:21.179Z,31.55
2022-09-02T18:00:01.964Z,31.49
2022-09-02T18:02:42.201Z,32.03
2022-09-02T18:05:17.363Z,32.56
2022-09-02T18:07:53.706Z,32.11
2022-09-02T18:10:22.488Z,32.59
2022-09-02T18:12:51.540Z,33.05
2022-09-02T18:15:19.634Z,32.62
2022-09-02T18:17:49.058Z,33.13
2022-09-02T18:20:24.835Z,33.73
2022-09-02T18:23:17.383Z,33.42
2022-09-02T18:25:52.973Z,34.05
2022-09-02T18:28:34.880Z,33.67
2022-09-02T18:31:12.139Z,33.50
2022-09-02T18:33:59.605Z,33.24
2022-09-02T18:36:39.096Z,33.86
2022-09-02T18:39:22.033Z,33.67
2022-09-02T18:42:03.266Z,34.24
2022-09-02T18:44:50.568Z,34.70
2022-09-02T18:47:22.187Z,34.50
2022-09-02T18:49:52.562Z,34.30
2022-09-02T18:52:24.925Z,34.06
2022-09-02T18:55:02.280Z,33.91
2022-09-02T18:57:36.531Z,33.86
2022-09-02T19:00:08.886Z,34.24
2022-09-02T19:02:43.836Z,33.96
2022-09-02T19:05:13.475Z,33.96
2022-09-02T19:08:02.244Z,34.00
2022-09-02T19:10:30.052Z,34.24
2022-09-02T19:13:02.546Z,34.22
2022-09-02T19:15:33.748Z,33.76
2022-09-02T19:18:04.782Z,34.10
2022-09-02T19:20:35.298Z,34.41
2022-09-02T19:23:06.202Z,34.12
2022-09-02T19:28:20.769Z,34.82
2022-09-02T19:30:51.103Z,35.19
2022-09-02T19:33:18.864Z,34.73
2022-09-02T19:35:54.397Z,34.55
2022-09-02T19:38:22.134Z,35.33
2022-09-02T19:40:50.265Z,34.79
2022-09-02T19:43:18.841Z,35.09
2022-09-02T19:45:51.270Z,34.68
2022-09-02T19:48:21.278Z,35.11
2022-09-02T19:50:49.361Z,34.94
2022-09-02T19:53:25.653Z,35.34
2022-09-02T19:55:53.946Z,34.80
2022-09-02T19:58:22.260Z,35.07
2022-09-02T20:00:51.427Z,35.31
2022-09-02T20:03:22.863Z,35.09
2022-09-02T20:05:51.805Z,35.91
2022-09-02T20:08:20.063Z,34.98
2022-09-02T20:10:55.966Z,35.05
2022-09-02T20:13:24.879Z,35.05
2022-09-02T20:15:53.865Z,35.19
2022-09-02T20:18:26.580Z,35.07
2022-09-02T20:20:55.908Z,35.55
2022-09-02T20:23:24.086Z,35.50
2022-09-02T20:26:09.017Z,35.76
2022-09-02T20:28:47.452Z,35.80
2022-09-02T20:31:26.687Z,35.18
2022-09-02T20:34:03.693Z,35.63
2022-09-02T20:36:39.461Z,35.31
2022-09-02T20:39:21.696Z,35.70
2022-09-02T20:42:03.952Z,35.67
2022-09-02T20:44:48.819Z,35.19
2022-09-02T20:47:36.596Z,35.59
2022-09-02T20:50:19.657Z,35.23
2022-09-02T20:53:00.938Z,35.95
2022-09-02T20:55:37.064Z,35.87
2022-09-02T20:58:22.800Z,35.88
2022-09-02T21:01:06.554Z,35.85
2022-09-02T21:03:42.604Z,35.94
2022-09-02T21:06:12.140Z,35.88
2022-09-02T21:08:49.030Z,36.33
2022-09-02T21:11:18.310Z,36.20
2022-09-02T21:13:51.435Z,36.22
2022-09-02T21:16:24.529Z,36.33
2022-09-02T21:19:07.299Z,36.42
2022-09-02T21:21:44.817Z,36.40
2022-09-02T21:24:19.216Z,36.84
2022-09-02T21:26:55.655Z,37.46
2022-09-02T21:29:30.849Z,37.04
2022-09-02T21:32:03.948Z,37.02
2022-09-02T21:34:38.033Z,37.12
2022-09-02T21:37:09.849Z,37.17
2022-09-02T21:39:44.603Z,37.33
2022-09-02T21:42:23.320Z,37.15
2022-09-02T21:45:06.440Z,37.13
2022-09-02T21:47:39.580Z,37.23
2022-09-02T21:50:11.147Z,37.45
2022-09-02T21:52:50.886Z,37.52
2022-09-02T21:55:32.443Z,38.07
2022-09-02T21:58:12.645Z,38.04
2022-09-02T22:00:46.998Z,38.07
2022-09-02T22:03:18.042Z,38.25
2022-09-02T22:05:52.477Z,38.39
2022-09-02T22:08:33.645Z,38.24
2022-09-02T22:11:09.816Z,38.62
2022-09-02T22:13:41.804Z,38.67
2022-09-02T22:16:28.138Z,38.94
2022-09-02T22:19:02.214Z,38.71
2022-09-02T22:21:37.912Z,38.91
2022-09-02T22:24:08.222Z,39.07
2022-09-02T22:26:41.487Z,39.00
2022-09-02T22:29:18.041Z,39.08
2022-09-02T22:31:48.766Z,39.46
2022-09-02T22:34:23.542Z,39.50
2022-09-02T22:37:00.495Z,39.73
2022-09-02T22:39:38.608Z,39.53
2022-09-02T22:42:15.982Z,39.45
2022-09-02T22:45:05.472Z,39.82
2022-09-02T22:47:53.906Z,39.73
2022-09-02T22:50:46.390Z,40.26
2022-09-02T22:53:14.053Z,40.31
2022-09-02T22:55:54.534Z,40.26
2022-09-02T22:58:58.385Z,40.32
2022-09-02T23:01:34.432Z,40.41
2022-09-02T23:04:24.758Z,40.55
2022-09-02T23:06:55.048Z,40.71
2022-09-02T23:09:22.729Z,40.39
2022-09-02T23:12:00.864Z,40.98
2022-09-02T23:14:38.842Z,40.99
2022-09-02T23:17:23.757Z,41.02
2022-09-02T23:20:01.303Z,41.22
2022-09-02T23:22:41.902Z,41.32
2022-09-02T23:25:24.336Z,41.31
2022-09-02T23:28:03.856Z,41.38
2022-09-02T23:30:31.824Z,41.24
2022-09-02T23:33:14.115Z,41.27
2022-09-02T23:35:48.137Z,41.51
2022-09-02T23:38:27.974Z,41.55
2022-09-02T23:41:04.753Z,41.63
2022-09-02T23:43:34.767Z,41.29
2022-09-02T23:46:19.938Z,42.04
2022-09-02T23:48:54.173Z,42.03
2022-09-02T23:51:32.177Z,41.97
2022-09-02T23:54:17.970Z,42.02
2022-09-02T23:57:03.970Z,42.02
2022-09-02T23:59:50.588Z,41.80
